sensor_id;sensor_type;location;lat;lon;timestamp;pressure;altitude;pressure_sealevel;temperature;humidity
42335;BME280;27986;42.700;24.178;2023-02-18T00:01:23;94548.03;;;3.22;66.73
42335;BME280;27986;42.700;24.178;2023-02-18T00:03:48;94487.34;;;2.89;66.46
42335;BME280;27986;42.700;24.178;2023-02-18T00:06:29;94487.50;;;3.04;65.29
42335;BME280;27986;42.700;24.178;2023-02-18T00:08:56;94539.69;;;3.49;64.32
42335;BME280;27986;42.700;24.178;2023-02-18T00:11:23;94535.50;;;3.35;64.04
42335;BME280;27986;42.700;24.178;2023-02-18T00:13:53;94386.53;;;2.26;64.47
42335;BME280;27986;42.700;24.178;2023-02-18T00:16:19;94532.38;;;3.06;65.69
42335;BME280;27986;42.700;24.178;2023-02-18T00:18:45;94454.22;;;2.82;65.04
42335;BME280;27986;42.700;24.178;2023-02-18T00:21:10;94494.00;;;3.10;64.80
42335;BME280;27986;42.700;24.178;2023-02-18T00:23:36;94466.28;;;3.16;64.91
42335;BME280;27986;42.700;24.178;2023-02-18T00:26:12;94527.28;;;3.23;65.60
42335;BME280;27986;42.700;24.178;2023-02-18T00:28:38;94529.78;;;3.48;65.68
42335;BME280;27986;42.700;24.178;2023-02-18T00:31:12;94481.59;;;2.83;65.89
42335;BME280;27986;42.700;24.178;2023-02-18T00:33:39;94483.59;;;2.83;67.15
42335;BME280;27986;42.700;24.178;2023-02-18T00:36:07;94440.38;;;2.42;67.91
42335;BME280;27986;42.700;24.178;2023-02-18T00:38:33;94436.69;;;2.54;67.60
42335;BME280;27986;42.700;24.178;2023-02-18T00:40:59;94457.78;;;2.92;66.36
42335;BME280;27986;42.700;24.178;2023-02-18T00:43:25;94456.56;;;3.20;65.12
42335;BME280;27986;42.700;24.178;2023-02-18T00:45:51;94442.47;;;3.15;64.24
42335;BME280;27986;42.700;24.178;2023-02-18T00:48:17;94413.38;;;2.61;65.30
42335;BME280;27986;42.700;24.178;2023-02-18T00:50:43;94483.19;;;3.03;65.63
42335;BME280;27986;42.700;24.178;2023-02-18T00:53:08;94417.59;;;2.25;66.57
42335;BME280;27986;42.700;24.178;2023-02-18T00:55:39;94517.81;;;3.11;66.42
42335;BME280;27986;42.700;24.178;2023-02-18T00:58:04;94511.31;;;2.87;67.10
42335;BME280;27986;42.700;24.178;2023-02-18T01:00:29;94423.03;;;2.29;67.30
42335;BME280;27986;42.700;24.178;2023-02-18T01:02:55;94457.25;;;2.57;67.93
42335;BME280;27986;42.700;24.178;2023-02-18T01:05:20;94441.16;;;2.51;67.20
42335;BME280;27986;42.700;24.178;2023-02-18T01:07:46;94461.19;;;2.87;66.66
42335;BME280;27986;42.700;24.178;2023-02-18T01:10:12;94493.19;;;2.82;67.13
42335;BME280;27986;42.700;24.178;2023-02-18T01:12:37;94476.16;;;2.71;67.96
42335;BME280;27986;42.700;24.178;2023-02-18T01:15:04;94505.13;;;3.01;66.61
42335;BME280;27986;42.700;24.178;2023-02-18T01:17:29;94417.97;;;2.36;66.66
42335;BME280;27986;42.700;24.178;2023-02-18T01:19:55;94418.13;;;2.51;66.12
42335;BME280;27986;42.700;24.178;2023-02-18T01:22:22;94502.03;;;2.99;66.24
42335;BME280;27986;42.700;24.178;2023-02-18T01:24:47;94497.88;;;3.13;65.82
42335;BME280;27986;42.700;24.178;2023-02-18T01:27:13;94466.91;;;2.92;66.04
42335;BME280;27986;42.700;24.178;2023-02-18T01:29:38;94438.91;;;2.87;64.76
42335;BME280;27986;42.700;24.178;2023-02-18T01:32:07;94426.66;;;2.84;64.41
42335;BME280;27986;42.700;24.178;2023-02-18T01:34:32;94389.84;;;2.62;64.69
42335;BME280;27986;42.700;24.178;2023-02-18T01:36:58;94477.28;;;3.19;64.33
42335;BME280;27986;42.700;24.178;2023-02-18T01:39:24;94412.75;;;2.93;64.18
42335;BME280;27986;42.700;24.178;2023-02-18T01:41:50;94446.78;;;2.97;64.13
42335;BME280;27986;42.700;24.178;2023-02-18T01:46:42;94413.66;;;2.63;64.24
42335;BME280;27986;42.700;24.178;2023-02-18T01:49:09;94407.81;;;2.88;64.48
42335;BME280;27986;42.700;24.178;2023-02-18T01:51:39;94444.63;;;3.29;63.54
42335;BME280;27986;42.700;24.178;2023-02-18T01:54:20;94484.25;;;3.42;63.85
42335;BME280;27986;42.700;24.178;2023-02-18T01:56:50;94483.63;;;3.56;63.73
42335;BME280;27986;42.700;24.178;2023-02-18T01:59:46;94422.78;;;3.09;63.03
42335;BME280;27986;42.700;24.178;2023-02-18T02:02:17;94478.06;;;3.38;64.24
42335;BME280;27986;42.700;24.178;2023-02-18T02:04:44;94418.94;;;3.06;64.34
42335;BME280;27986;42.700;24.178;2023-02-18T02:07:10;94338.47;;;2.35;64.10
42335;BME280;27986;42.700;24.178;2023-02-18T02:09:36;94352.72;;;2.46;64.06
42335;BME280;27986;42.700;24.178;2023-02-18T02:24:02;94466.00;;;3.23;64.32
42335;BME280;27986;42.700;24.178;2023-02-18T02:32:25;94474.03;;;3.21;65.17
42335;BME280;27986;42.700;24.178;2023-02-18T02:35:13;94476.97;;;3.08;64.70
42335;BME280;27986;42.700;24.178;2023-02-18T02:37:53;94480.28;;;2.48;67.02
42335;BME280;27986;42.700;24.178;2023-02-18T02:43:46;94469.34;;;2.63;67.92
42335;BME280;27986;42.700;24.178;2023-02-18T02:46:29;94428.50;;;2.69;66.27
42335;BME280;27986;42.700;24.178;2023-02-18T02:54:26;94450.16;;;2.65;65.76
42335;BME280;27986;42.700;24.178;2023-02-18T02:59:43;94436.56;;;2.67;65.69
42335;BME280;27986;42.700;24.178;2023-02-18T03:02:16;94477.44;;;2.79;65.56
42335;BME280;27986;42.700;24.178;2023-02-18T03:04:58;94481.59;;;2.93;65.62
42335;BME280;27986;42.700;24.178;2023-02-18T03:12:42;94467.53;;;3.24;64.54
42335;BME280;27986;42.700;24.178;2023-02-18T03:15:25;94482.66;;;2.77;65.63
42335;BME280;27986;42.700;24.178;2023-02-18T03:18:08;94497.03;;;2.66;66.65
42335;BME280;27986;42.700;24.178;2023-02-18T03:20:56;94465.03;;;2.71;65.97
42335;BME280;27986;42.700;24.178;2023-02-18T03:23:28;94485.47;;;2.86;65.51
42335;BME280;27986;42.700;24.178;2023-02-18T03:25:58;94485.16;;;2.93;66.48
42335;BME280;27986;42.700;24.178;2023-02-18T03:28:26;94439.50;;;2.72;65.81
42335;BME280;27986;42.700;24.178;2023-02-18T03:31:01;94422.13;;;2.32;66.16
42335;BME280;27986;42.700;24.178;2023-02-18T03:33:36;94485.91;;;2.66;67.20
42335;BME280;27986;42.700;24.178;2023-02-18T03:36:03;94403.69;;;2.25;66.68
42335;BME280;27986;42.700;24.178;2023-02-18T03:38:31;94488.72;;;2.94;66.38
42335;BME280;27986;42.700;24.178;2023-02-18T03:40:59;94476.41;;;2.36;68.55
42335;BME280;27986;42.700;24.178;2023-02-18T03:43:24;94437.75;;;2.38;68.52
42335;BME280;27986;42.700;24.178;2023-02-18T03:45:50;94400.34;;;1.90;68.94
42335;BME280;27986;42.700;24.178;2023-02-18T03:48:16;94428.13;;;2.21;69.36
42335;BME280;27986;42.700;24.178;2023-02-18T03:50:42;94455.53;;;2.50;68.18
42335;BME280;27986;42.700;24.178;2023-02-18T03:53:08;94503.72;;;2.78;68.08
42335;BME280;27986;42.700;24.178;2023-02-18T03:55:33;94395.63;;;2.09;68.07
42335;BME280;27986;42.700;24.178;2023-02-18T03:57:59;94475.81;;;2.60;67.17
42335;BME280;27986;42.700;24.178;2023-02-18T04:00:24;94408.03;;;2.35;67.56
42335;BME280;27986;42.700;24.178;2023-02-18T04:02:50;94505.31;;;3.06;66.21
42335;BME280;27986;42.700;24.178;2023-02-18T04:05:15;94503.13;;;3.10;65.94
42335;BME280;27986;42.700;24.178;2023-02-18T04:07:41;94516.44;;;3.06;66.17
42335;BME280;27986;42.700;24.178;2023-02-18T04:10:07;94509.03;;;3.03;66.25
42335;BME280;27986;42.700;24.178;2023-02-18T04:12:32;94439.94;;;2.52;66.61
42335;BME280;27986;42.700;24.178;2023-02-18T04:14:58;94498.59;;;2.86;67.13
42335;BME280;27986;42.700;24.178;2023-02-18T04:17:23;94489.16;;;2.83;67.30
42335;BME280;27986;42.700;24.178;2023-02-18T04:19:49;94488.25;;;2.86;66.90
42335;BME280;27986;42.700;24.178;2023-02-18T04:22:15;94447.63;;;2.30;67.88
42335;BME280;27986;42.700;24.178;2023-02-18T04:24:40;94453.69;;;2.47;68.01
42335;BME280;27986;42.700;24.178;2023-02-18T04:27:06;94450.75;;;2.50;67.56
42335;BME280;27986;42.700;24.178;2023-02-18T04:29:31;94432.22;;;2.66;66.04
42335;BME280;27986;42.700;24.178;2023-02-18T04:31:56;94438.09;;;2.59;66.15
42335;BME280;27986;42.700;24.178;2023-02-18T04:34:22;94436.84;;;2.50;66.31
42335;BME280;27986;42.700;24.178;2023-02-18T04:36:47;94493.19;;;2.82;66.38
42335;BME280;27986;42.700;24.178;2023-02-18T04:39:13;94490.88;;;2.90;66.00
42335;BME280;27986;42.700;24.178;2023-02-18T04:41:39;94469.66;;;2.65;66.56
42335;BME280;27986;42.700;24.178;2023-02-18T04:44:04;94415.53;;;1.98;67.91
42335;BME280;27986;42.700;24.178;2023-02-18T04:46:30;94433.97;;;2.14;68.38
42335;BME280;27986;42.700;24.178;2023-02-18T04:48:56;94485.69;;;2.51;69.26
42335;BME280;27986;42.700;24.178;2023-02-18T04:51:21;94437.56;;;2.23;69.52
42335;BME280;27986;42.700;24.178;2023-02-18T04:53:47;94492.69;;;2.56;69.80
42335;BME280;27986;42.700;24.178;2023-02-18T04:56:12;94432.06;;;2.02;71.65
42335;BME280;27986;42.700;24.178;2023-02-18T04:58:38;94482.09;;;2.33;71.64
42335;BME280;27986;42.700;24.178;2023-02-18T05:01:04;94500.56;;;2.58;71.07
42335;BME280;27986;42.700;24.178;2023-02-18T05:03:30;94472.44;;;2.56;70.46
42335;BME280;27986;42.700;24.178;2023-02-18T05:05:55;94422.59;;;2.39;69.27
42335;BME280;27986;42.700;24.178;2023-02-18T05:08:21;94478.66;;;2.78;68.13
42335;BME280;27986;42.700;24.178;2023-02-18T05:10:47;94487.91;;;2.66;69.16
42335;BME280;27986;42.700;24.178;2023-02-18T05:13:13;94431.19;;;2.14;70.54
42335;BME280;27986;42.700;24.178;2023-02-18T05:15:38;94430.38;;;2.04;71.63
42335;BME280;27986;42.700;24.178;2023-02-18T05:18:04;94367.28;;;1.92;71.67
42335;BME280;27986;42.700;24.178;2023-02-18T05:20:29;94435.88;;;2.35;71.23
42335;BME280;27986;42.700;24.178;2023-02-18T05:22:55;94455.22;;;2.39;71.84
42335;BME280;27986;42.700;24.178;2023-02-18T05:25:20;94430.28;;;2.26;71.03
42335;BME280;27986;42.700;24.178;2023-02-18T05:27:46;94358.09;;;1.64;70.79
42335;BME280;27986;42.700;24.178;2023-02-18T05:30:12;94464.03;;;2.37;71.69
42335;BME280;27986;42.700;24.178;2023-02-18T05:32:37;94392.06;;;2.08;70.75
42335;BME280;27986;42.700;24.178;2023-02-18T05:35:03;94440.56;;;2.66;69.73
42335;BME280;27986;42.700;24.178;2023-02-18T05:37:29;94458.84;;;2.76;69.97
42335;BME280;27986;42.700;24.178;2023-02-18T05:39:54;94419.38;;;2.68;68.61
42335;BME280;27986;42.700;24.178;2023-02-18T05:42:20;94459.84;;;2.42;71.36
42335;BME280;27986;42.700;24.178;2023-02-18T05:44:45;94460.00;;;2.38;72.38
42335;BME280;27986;42.700;24.178;2023-02-18T05:47:12;94504.66;;;2.84;72.01
42335;BME280;27986;42.700;24.178;2023-02-18T05:49:39;94505.28;;;2.97;71.32
42335;BME280;27986;42.700;24.178;2023-02-18T05:52:05;94502.97;;;3.14;70.31
42335;BME280;27986;42.700;24.178;2023-02-18T05:54:31;94468.25;;;2.60;70.13
42335;BME280;27986;42.700;24.178;2023-02-18T05:56:58;94440.94;;;2.18;72.85
42335;BME280;27986;42.700;24.178;2023-02-18T05:59:24;94518.75;;;2.90;71.99
42335;BME280;27986;42.700;24.178;2023-02-18T06:01:50;94437.31;;;2.67;71.01
42335;BME280;27986;42.700;24.178;2023-02-18T06:04:15;94445.97;;;2.51;71.65
42335;BME280;27986;42.700;24.178;2023-02-18T06:06:41;94460.84;;;2.75;71.85
42335;BME280;27986;42.700;24.178;2023-02-18T06:09:07;94490.13;;;3.35;70.69
42335;BME280;27986;42.700;24.178;2023-02-18T06:11:33;94482.97;;;3.52;69.32
42335;BME280;27986;42.700;24.178;2023-02-18T06:13:59;94415.38;;;3.15;68.86
42335;BME280;27986;42.700;24.178;2023-02-18T06:16:25;94404.41;;;3.12;68.46
42335;BME280;27986;42.700;24.178;2023-02-18T06:18:50;94485.44;;;3.68;68.55
42335;BME280;27986;42.700;24.178;2023-02-18T06:21:16;94410.44;;;2.82;69.25
42335;BME280;27986;42.700;24.178;2023-02-18T06:23:42;94407.47;;;2.49;71.66
42335;BME280;27986;42.700;24.178;2023-02-18T06:26:07;94502.84;;;3.45;70.78
42335;BME280;27986;42.700;24.178;2023-02-18T06:28:33;94455.00;;;3.28;70.36
42335;BME280;27986;42.700;24.178;2023-02-18T06:31:00;94395.41;;;3.17;69.56
42335;BME280;27986;42.700;24.178;2023-02-18T06:33:25;94402.53;;;2.81;70.64
42335;BME280;27986;42.700;24.178;2023-02-18T06:36:11;94495.84;;;3.50;71.81
42335;BME280;27986;42.700;24.178;2023-02-18T06:38:42;94484.03;;;3.82;70.03
42335;BME280;27986;42.700;24.178;2023-02-18T06:41:08;94481.34;;;4.06;68.78
42335;BME280;27986;42.700;24.178;2023-02-18T06:43:34;94425.44;;;3.82;67.65
42335;BME280;27986;42.700;24.178;2023-02-18T06:45:59;94457.75;;;4.07;66.96
42335;BME280;27986;42.700;24.178;2023-02-18T06:48:25;94431.44;;;3.38;67.52
42335;BME280;27986;42.700;24.178;2023-02-18T06:50:50;94412.13;;;2.89;68.14
42335;BME280;27986;42.700;24.178;2023-02-18T06:53:16;94433.81;;;3.03;67.58
42335;BME280;27986;42.700;24.178;2023-02-18T06:55:43;94485.75;;;3.80;66.61
42335;BME280;27986;42.700;24.178;2023-02-18T06:58:10;94496.19;;;4.03;67.70
42335;BME280;27986;42.700;24.178;2023-02-18T07:00:35;94458.72;;;4.04;66.40
42335;BME280;27986;42.700;24.178;2023-02-18T07:03:01;94496.03;;;4.49;65.26
42335;BME280;27986;42.700;24.178;2023-02-18T07:05:27;94415.09;;;3.74;65.32
42335;BME280;27986;42.700;24.178;2023-02-18T07:07:52;94454.75;;;3.87;66.71
42335;BME280;27986;42.700;24.178;2023-02-18T07:10:18;94403.94;;;3.74;67.25
42335;BME280;27986;42.700;24.178;2023-02-18T07:12:43;94448.69;;;3.88;67.04
42335;BME280;27986;42.700;24.178;2023-02-18T07:15:09;94489.78;;;4.63;65.91
42335;BME280;27986;42.700;24.178;2023-02-18T07:17:39;94496.47;;;4.57;66.19
42335;BME280;27986;42.700;24.178;2023-02-18T07:20:05;94436.50;;;4.43;65.11
42335;BME280;27986;42.700;24.178;2023-02-18T07:22:31;94407.53;;;4.40;65.03
42335;BME280;27986;42.700;24.178;2023-02-18T07:24:56;94436.94;;;4.74;64.00
42335;BME280;27986;42.700;24.178;2023-02-18T07:27:22;94493.53;;;5.32;63.82
42335;BME280;27986;42.700;24.178;2023-02-18T07:29:48;94473.47;;;5.33;62.84
42335;BME280;27986;42.700;24.178;2023-02-18T07:32:14;94470.88;;;5.30;63.99
42335;BME280;27986;42.700;24.178;2023-02-18T07:34:40;94483.91;;;5.48;64.74
42335;BME280;27986;42.700;24.178;2023-02-18T07:37:06;94400.91;;;5.00;63.58
42335;BME280;27986;42.700;24.178;2023-02-18T07:39:39;94481.59;;;5.61;63.86
42335;BME280;27986;42.700;24.178;2023-02-18T07:42:04;94376.81;;;5.03;64.02
42335;BME280;27986;42.700;24.178;2023-02-18T07:44:30;94448.41;;;5.54;64.85
42335;BME280;27986;42.700;24.178;2023-02-18T07:46:56;94448.81;;;5.61;64.42
42335;BME280;27986;42.700;24.178;2023-02-18T07:49:22;94449.44;;;5.80;63.36
42335;BME280;27986;42.700;24.178;2023-02-18T07:51:48;94450.78;;;6.00;63.05
42335;BME280;27986;42.700;24.178;2023-02-18T07:54:13;94420.88;;;5.91;62.97
42335;BME280;27986;42.700;24.178;2023-02-18T07:56:39;94415.84;;;5.95;62.50
42335;BME280;27986;42.700;24.178;2023-02-18T07:59:05;94438.41;;;6.21;61.79
42335;BME280;27986;42.700;24.178;2023-02-18T08:01:30;94480.00;;;6.43;61.45
42335;BME280;27986;42.700;24.178;2023-02-18T08:03:55;94409.06;;;6.16;61.75
42335;BME280;27986;42.700;24.178;2023-02-18T08:06:27;94465.91;;;6.37;63.08
42335;BME280;27986;42.700;24.178;2023-02-18T08:08:58;94447.63;;;6.57;62.17
42335;BME280;27986;42.700;24.178;2023-02-18T08:11:24;94495.31;;;6.97;61.56
42335;BME280;27986;42.700;24.178;2023-02-18T08:13:50;94388.69;;;6.31;60.65
42335;BME280;27986;42.700;24.178;2023-02-18T08:16:17;94467.22;;;6.92;59.90
42335;BME280;27986;42.700;24.178;2023-02-18T08:18:44;94431.53;;;6.92;58.17
42335;BME280;27986;42.700;24.178;2023-02-18T08:21:15;94466.59;;;7.43;57.01
42335;BME280;27986;42.700;24.178;2023-02-18T08:23:41;94449.44;;;7.61;55.32
42335;BME280;27986;42.700;24.178;2023-02-18T08:26:07;94476.88;;;8.24;54.70
42335;BME280;27986;42.700;24.178;2023-02-18T08:28:32;94383.94;;;7.96;53.85
42335;BME280;27986;42.700;24.178;2023-02-18T08:30:58;94424.22;;;8.19;52.71
42335;BME280;27986;42.700;24.178;2023-02-18T08:33:24;94396.38;;;8.21;51.88
42335;BME280;27986;42.700;24.178;2023-02-18T08:35:52;94456.41;;;8.87;49.88
42335;BME280;27986;42.700;24.178;2023-02-18T08:38:18;94448.88;;;8.72;46.28
42335;BME280;27986;42.700;24.178;2023-02-18T08:40:44;94475.97;;;9.13;45.31
42335;BME280;27986;42.700;24.178;2023-02-18T08:43:10;94468.16;;;9.34;44.94
42335;BME280;27986;42.700;24.178;2023-02-18T08:45:37;94476.31;;;9.31;44.28
42335;BME280;27986;42.700;24.178;2023-02-18T08:48:03;94419.16;;;9.03;44.04
42335;BME280;27986;42.700;24.178;2023-02-18T08:50:29;94434.88;;;9.26;43.23
42335;BME280;27986;42.700;24.178;2023-02-18T08:52:56;94416.47;;;9.31;43.22
42335;BME280;27986;42.700;24.178;2023-02-18T08:55:24;94384.03;;;9.52;42.32
42335;BME280;27986;42.700;24.178;2023-02-18T08:57:51;94377.19;;;9.81;42.30
42335;BME280;27986;42.700;24.178;2023-02-18T09:00:16;94382.84;;;10.09;41.48
42335;BME280;27986;42.700;24.178;2023-02-18T09:02:42;94418.72;;;10.31;40.32
42335;BME280;27986;42.700;24.178;2023-02-18T09:05:09;94454.88;;;10.55;41.03
42335;BME280;27986;42.700;24.178;2023-02-18T09:07:35;94396.41;;;10.05;41.94
42335;BME280;27986;42.700;24.178;2023-02-18T09:10:02;94362.84;;;9.91;41.13
42335;BME280;27986;42.700;24.178;2023-02-18T09:12:27;94453.56;;;10.84;40.57
42335;BME280;27986;42.700;24.178;2023-02-18T09:14:53;94423.25;;;11.07;40.17
42335;BME280;27986;42.700;24.178;2023-02-18T09:17:19;94440.75;;;11.69;39.69
42335;BME280;27986;42.700;24.178;2023-02-18T09:19:44;94397.94;;;11.48;37.45
42335;BME280;27986;42.700;24.178;2023-02-18T09:22:09;94379.91;;;10.99;38.56
42335;BME280;27986;42.700;24.178;2023-02-18T09:24:36;94387.00;;;11.28;37.75
42335;BME280;27986;42.700;24.178;2023-02-18T09:27:02;94395.72;;;11.36;38.36
42335;BME280;27986;42.700;24.178;2023-02-18T09:29:29;94402.59;;;11.40;38.39
42335;BME280;27986;42.700;24.178;2023-02-18T09:31:54;94394.13;;;11.40;38.87
42335;BME280;27986;42.700;24.178;2023-02-18T09:34:23;94358.16;;;11.46;37.90
42335;BME280;27986;42.700;24.178;2023-02-18T09:36:49;94406.47;;;11.90;37.54
42335;BME280;27986;42.700;24.178;2023-02-18T09:39:15;94416.50;;;11.91;38.06
42335;BME280;27986;42.700;24.178;2023-02-18T09:41:47;94405.88;;;11.50;37.18
42335;BME280;27986;42.700;24.178;2023-02-18T09:44:22;94419.88;;;11.83;37.55
42335;BME280;27986;42.700;24.178;2023-02-18T09:47:01;94426.03;;;11.82;37.59
42335;BME280;27986;42.700;24.178;2023-02-18T09:49:33;94431.00;;;11.59;37.93
42335;BME280;27986;42.700;24.178;2023-02-18T09:52:16;94427.94;;;11.57;37.63
42335;BME280;27986;42.700;24.178;2023-02-18T09:54:43;94392.25;;;10.96;38.32
42335;BME280;27986;42.700;24.178;2023-02-18T09:57:20;94372.53;;;10.79;38.42
42335;BME280;27986;42.700;24.178;2023-02-18T09:59:53;94422.88;;;11.39;38.49
42335;BME280;27986;42.700;24.178;2023-02-18T10:02:20;94397.63;;;11.57;38.37
42335;BME280;27986;42.700;24.178;2023-02-18T10:04:47;94369.59;;;11.71;37.79
42335;BME280;27986;42.700;24.178;2023-02-18T10:07:33;94363.66;;;11.74;37.01
42335;BME280;27986;42.700;24.178;2023-02-18T10:10:10;94377.69;;;11.91;37.13
42335;BME280;27986;42.700;24.178;2023-02-18T10:12:41;94337.69;;;11.81;37.12
42335;BME280;27986;42.700;24.178;2023-02-18T10:15:23;94340.38;;;12.04;37.03
42335;BME280;27986;42.700;24.178;2023-02-18T10:17:51;94358.38;;;12.31;36.32
42335;BME280;27986;42.700;24.178;2023-02-18T10:20:21;94394.25;;;12.47;36.83
42335;BME280;27986;42.700;24.178;2023-02-18T10:22:49;94369.44;;;12.59;35.94
42335;BME280;27986;42.700;24.178;2023-02-18T10:25:18;94318.13;;;11.89;36.25
42335;BME280;27986;42.700;24.178;2023-02-18T10:27:45;94335.38;;;12.16;36.37
42335;BME280;27986;42.700;24.178;2023-02-18T10:30:20;94347.84;;;12.31;36.37
42335;BME280;27986;42.700;24.178;2023-02-18T10:32:47;94363.66;;;12.46;35.95
42335;BME280;27986;42.700;24.178;2023-02-18T10:35:51;94352.38;;;12.70;36.23
42335;BME280;27986;42.700;24.178;2023-02-18T10:41:40;94336.59;;;12.50;36.24
42335;BME280;27986;42.700;24.178;2023-02-18T10:47:49;94301.75;;;12.12;36.30
42335;BME280;27986;42.700;24.178;2023-02-18T10:50:30;94282.84;;;12.26;36.05
42335;BME280;27986;42.700;24.178;2023-02-18T10:53:18;94244.00;;;12.02;35.04
42335;BME280;27986;42.700;24.178;2023-02-18T10:55:47;94280.81;;;12.51;35.47
42335;BME280;27986;42.700;24.178;2023-02-18T11:00:52;94198.59;;;12.43;35.21
42335;BME280;27986;42.700;24.178;2023-02-18T11:03:20;94299.16;;;13.12;34.82
42335;BME280;27986;42.700;24.178;2023-02-18T11:05:49;94245.09;;;12.48;35.15
42335;BME280;27986;42.700;24.178;2023-02-18T11:08:31;94259.00;;;12.70;34.39
42335;BME280;27986;42.700;24.178;2023-02-18T11:11:21;94250.44;;;12.76;35.09
42335;BME280;27986;42.700;24.178;2023-02-18T11:14:12;94287.41;;;12.83;34.51
42335;BME280;27986;42.700;24.178;2023-02-18T11:16:45;94237.59;;;12.75;34.85
42335;BME280;27986;42.700;24.178;2023-02-18T11:19:34;94278.84;;;13.32;34.45
42335;BME280;27986;42.700;24.178;2023-02-18T11:22:30;94275.44;;;13.52;33.59
42335;BME280;27986;42.700;24.178;2023-02-18T11:24:59;94235.19;;;13.41;33.91
42335;BME280;27986;42.700;24.178;2023-02-18T11:27:31;94238.41;;;13.32;33.01
42335;BME280;27986;42.700;24.178;2023-02-18T11:30:05;94257.00;;;13.27;33.15
42335;BME280;27986;42.700;24.178;2023-02-18T11:32:34;94194.72;;;12.89;33.95
42335;BME280;27986;42.700;24.178;2023-02-18T11:35:02;94206.84;;;12.84;33.43
42335;BME280;27986;42.700;24.178;2023-02-18T11:37:31;94149.28;;;12.20;33.42
42335;BME280;27986;42.700;24.178;2023-02-18T11:39:57;94186.84;;;12.39;34.05
42335;BME280;27986;42.700;24.178;2023-02-18T11:42:25;94171.13;;;12.62;34.13
42335;BME280;27986;42.700;24.178;2023-02-18T11:44:54;94207.06;;;13.30;33.57
42335;BME280;27986;42.700;24.178;2023-02-18T11:47:27;94201.34;;;13.48;33.43
42335;BME280;27986;42.700;24.178;2023-02-18T11:50:21;94213.03;;;13.58;32.27
42335;BME280;27986;42.700;24.178;2023-02-18T11:52:48;94235.38;;;13.94;32.81
42335;BME280;27986;42.700;24.178;2023-02-18T11:55:19;94225.34;;;13.61;32.71
42335;BME280;27986;42.700;24.178;2023-02-18T11:57:49;94217.38;;;13.46;32.59
42335;BME280;27986;42.700;24.178;2023-02-18T12:02:51;94212.38;;;13.14;33.22
42335;BME280;27986;42.700;24.178;2023-02-18T12:05:26;94187.59;;;12.83;33.57
42335;BME280;27986;42.700;24.178;2023-02-18T12:08:00;94182.91;;;12.66;33.58
42335;BME280;27986;42.700;24.178;2023-02-18T12:10:34;94193.31;;;12.77;33.97
42335;BME280;27986;42.700;24.178;2023-02-18T12:13:02;94222.56;;;13.04;34.06
42335;BME280;27986;42.700;24.178;2023-02-18T12:18:50;94207.88;;;13.06;34.80
42335;BME280;27986;42.700;24.178;2023-02-18T12:21:27;94196.56;;;13.24;34.77
42335;BME280;27986;42.700;24.178;2023-02-18T12:24:02;94191.75;;;13.51;34.42
42335;BME280;27986;42.700;24.178;2023-02-18T12:29:45;94163.63;;;13.40;35.19
42335;BME280;27986;42.700;24.178;2023-02-18T12:32:18;94187.88;;;13.55;34.72
42335;BME280;27986;42.700;24.178;2023-02-18T12:40:32;94181.53;;;13.48;34.24
42335;BME280;27986;42.700;24.178;2023-02-18T12:43:08;94160.09;;;13.34;34.13
42335;BME280;27986;42.700;24.178;2023-02-18T12:45:59;94182.91;;;13.87;34.22
42335;BME280;27986;42.700;24.178;2023-02-18T12:48:59;94185.13;;;13.81;33.39
42335;BME280;27986;42.700;24.178;2023-02-18T12:55:01;94174.31;;;13.79;33.03
42335;BME280;27986;42.700;24.178;2023-02-18T12:57:35;94133.97;;;13.87;33.06
42335;BME280;27986;42.700;24.178;2023-02-18T13:00:27;94164.22;;;14.37;32.65
42335;BME280;27986;42.700;24.178;2023-02-18T13:16:46;94147.66;;;14.41;33.02
42335;BME280;27986;42.700;24.178;2023-02-18T13:19:32;94143.63;;;14.50;33.00
42335;BME280;27986;42.700;24.178;2023-02-18T13:22:03;94076.66;;;14.07;32.79
42335;BME280;27986;42.700;24.178;2023-02-18T13:29:49;94145.13;;;14.11;33.30
42335;BME280;27986;42.700;24.178;2023-02-18T13:34:54;94171.88;;;14.16;33.79
42335;BME280;27986;42.700;24.178;2023-02-18T13:40:19;94149.25;;;13.84;34.37
42335;BME280;27986;42.700;24.178;2023-02-18T13:42:50;94070.69;;;13.39;34.11
42335;BME280;27986;42.700;24.178;2023-02-18T13:47:49;94127.97;;;13.77;33.75
42335;BME280;27986;42.700;24.178;2023-02-18T13:55:40;94156.78;;;13.94;34.45
42335;BME280;27986;42.700;24.178;2023-02-18T13:58:18;94134.28;;;13.70;34.56
42335;BME280;27986;42.700;24.178;2023-02-18T14:00:49;94114.97;;;13.68;34.88
42335;BME280;27986;42.700;24.178;2023-02-18T14:05:58;94159.84;;;13.96;35.54
42335;BME280;27986;42.700;24.178;2023-02-18T14:08:38;94117.81;;;13.68;35.53
42335;BME280;27986;42.700;24.178;2023-02-18T14:13:46;94160.50;;;13.89;35.85
42335;BME280;27986;42.700;24.178;2023-02-18T14:16:13;94085.03;;;13.28;36.34
42335;BME280;27986;42.700;24.178;2023-02-18T14:33:39;94129.22;;;13.49;36.10
42335;BME280;27986;42.700;24.178;2023-02-18T14:42:23;94151.88;;;13.49;36.01
42335;BME280;27986;42.700;24.178;2023-02-18T14:48:19;94184.50;;;13.69;35.86
42335;BME280;27986;42.700;24.178;2023-02-18T14:50:17;94121.53;;;13.31;35.70
42335;BME280;27986;42.700;24.178;2023-02-18T14:52:53;94107.84;;;13.16;36.07
42335;BME280;27986;42.700;24.178;2023-02-18T14:55:23;94182.00;;;13.66;36.04
42335;BME280;27986;42.700;24.178;2023-02-18T14:57:53;94131.44;;;13.24;35.99
42335;BME280;27986;42.700;24.178;2023-02-18T15:00:25;94127.00;;;13.29;35.73
42335;BME280;27986;42.700;24.178;2023-02-18T15:02:54;94167.13;;;13.46;36.19
42335;BME280;27986;42.700;24.178;2023-02-18T15:05:22;94192.13;;;13.61;36.06
42335;BME280;27986;42.700;24.178;2023-02-18T15:08:03;94184.16;;;13.60;36.21
42335;BME280;27986;42.700;24.178;2023-02-18T15:10:38;94176.28;;;13.52;35.97
42335;BME280;27986;42.700;24.178;2023-02-18T15:13:11;94176.63;;;13.49;36.36
42335;BME280;27986;42.700;24.178;2023-02-18T15:15:39;94135.41;;;13.16;36.21